createdAt,value
2018-12-01T00:04:59.064Z,101061.72
2018-12-01T00:10:01.762Z,101063.33
2018-12-01T00:15:07.877Z,101059.45
2018-12-01T00:20:12.529Z,101058.16
2018-12-01T00:25:15.182Z,101061.98
2018-12-01T00:30:19.699Z,101055.89
2018-12-01T00:35:22.327Z,101050.34
2018-12-01T00:40:24.960Z,101055.39
2018-12-01T00:45:27.592Z,101045.09
2018-12-01T00:50:30.237Z,101038.80
2018-12-01T00:55:32.869Z,101050.44
2018-12-01T01:00:35.515Z,101046.09
2018-12-01T01:05:38.123Z,101051.92
2018-12-01T01:10:40.720Z,101046.34
2018-12-01T01:15:43.408Z,101050.98
2018-12-01T01:20:46.660Z,101054.31
2018-12-01T01:25:49.256Z,101060.70
2018-12-01T01:30:51.837Z,101062.08
2018-12-01T01:35:54.436Z,101061.23
2018-12-01T01:41:02.980Z,101056.85
2018-12-01T01:46:05.642Z,101057.61
2018-12-01T01:51:08.356Z,101056.70
2018-12-01T01:56:10.981Z,101049.84
2018-12-01T02:01:13.589Z,101040.01
2018-12-01T02:06:16.185Z,101045.03
2018-12-01T02:11:18.887Z,101043.36
2018-12-01T02:16:21.525Z,101043.80
2018-12-01T02:21:25.332Z,101024.91
2018-12-01T02:26:28.013Z,101024.09
2018-12-01T02:31:30.656Z,101033.52
2018-12-01T02:36:33.257Z,101027.63
2018-12-01T02:41:35.871Z,101023.31
2018-12-01T02:47:04.098Z,101029.36
2018-12-01T02:52:06.767Z,101037.59
2018-12-01T02:57:09.377Z,101044.02
2018-12-01T03:02:12.034Z,101043.89
2018-12-01T03:07:14.668Z,101040.19
2018-12-01T03:12:17.262Z,101041.97
2018-12-01T03:17:19.892Z,101037.56
2018-12-01T03:22:22.577Z,101035.31
2018-12-01T03:27:29.832Z,101041.70
2018-12-01T03:32:32.465Z,101039.39
2018-12-01T03:37:35.125Z,101050.51
2018-12-01T03:42:37.733Z,101044.18
2018-12-01T03:47:40.409Z,101045.81
2018-12-01T03:52:43.114Z,101039.36
2018-12-01T03:57:45.734Z,101034.22
2018-12-01T04:02:48.317Z,101057.34
2018-12-01T04:07:50.929Z,101042.89
2018-12-01T04:12:54.034Z,101041.20
2018-12-01T04:17:56.707Z,101049.03
2018-12-01T04:23:00.135Z,101055.77
2018-12-01T04:28:02.790Z,101051.86
2018-12-01T04:33:05.592Z,101044.38
2018-12-01T04:38:08.205Z,101042.21
2018-12-01T04:43:10.794Z,101058.94
2018-12-01T04:48:13.429Z,101044.34
2018-12-01T04:53:16.144Z,101053.77
2018-12-01T04:58:18.752Z,101055.00
2018-12-01T05:03:21.347Z,101060.95
2018-12-01T05:08:23.957Z,101058.09
2018-12-01T05:13:26.571Z,101051.01
2018-12-01T05:18:29.194Z,101039.70
2018-12-01T05:23:31.905Z,101040.05
2018-12-01T05:28:34.464Z,101049.36
2018-12-01T05:33:37.003Z,101057.79
2018-12-01T05:38:39.685Z,101049.98
2018-12-01T05:43:42.297Z,101050.27
2018-12-01T05:48:44.980Z,101054.13
2018-12-01T05:53:47.640Z,101060.48
2018-12-01T05:58:50.395Z,101057.01
2018-12-01T06:03:53.030Z,101061.61
2018-12-01T06:08:55.615Z,101052.21
2018-12-01T06:13:58.228Z,101051.30
2018-12-01T06:19:00.864Z,101054.78
2018-12-01T06:24:03.741Z,101074.94
2018-12-01T06:29:06.372Z,101073.18
2018-12-01T06:34:09.005Z,101076.03
2018-12-01T06:39:11.630Z,101084.94
2018-12-01T06:44:14.353Z,101087.06
2018-12-01T06:49:17.004Z,101088.66
2018-12-01T06:54:19.655Z,101090.70
2018-12-01T06:59:22.252Z,101096.22
2018-12-01T07:04:24.924Z,101099.13
2018-12-01T07:09:27.624Z,101104.55
2018-12-01T07:14:30.217Z,101102.26
2018-12-01T07:19:32.780Z,101101.28
2018-12-01T07:24:35.412Z,101107.92
2018-12-01T07:29:38.112Z,101110.73
2018-12-01T07:34:40.754Z,101114.09
2018-12-01T07:39:43.423Z,101111.42
2018-12-01T07:44:47.013Z,101110.06
2018-12-01T07:49:48.651Z,101120.77
2018-12-01T07:54:51.380Z,101115.61
2018-12-01T07:59:54.160Z,101121.06
2018-12-01T08:04:57.060Z,101117.08
2018-12-01T08:09:59.809Z,101113.42
2018-12-01T08:15:03.527Z,101112.88
2018-12-01T08:20:08.689Z,101108.88
2018-12-01T08:25:13.468Z,101115.10
2018-12-01T08:30:20.037Z,101119.13
2018-12-01T08:35:23.673Z,101108.98
2018-12-01T08:40:28.008Z,101115.68
2018-12-01T08:45:30.741Z,101118.11
2018-12-01T08:50:33.229Z,101119.62
2018-12-01T08:55:35.831Z,101104.55
2018-12-01T09:00:41.035Z,101111.22
2018-12-01T09:05:43.756Z,101116.78
2018-12-01T09:10:46.389Z,101120.59
2018-12-01T09:15:48.981Z,101117.48
2018-12-01T09:20:51.609Z,101118.09
2018-12-01T09:25:54.539Z,101105.61
2018-12-01T09:30:57.158Z,101106.14
2018-12-01T09:36:00.009Z,101097.75
2018-12-01T09:41:02.678Z,101104.91
2018-12-01T09:46:05.345Z,101099.59
2018-12-01T09:51:08.273Z,101102.38
2018-12-01T09:56:11.117Z,101091.58
2018-12-01T10:01:13.730Z,101086.58
2018-12-01T10:06:16.499Z,101080.02
2018-12-01T10:11:19.104Z,101072.76
2018-12-01T10:16:21.964Z,101059.45
2018-12-01T10:21:24.577Z,101055.05
2018-12-01T10:26:27.197Z,101049.57
2018-12-01T10:31:29.877Z,101048.19
2018-12-01T10:36:32.545Z,101045.89
2018-12-01T10:41:35.237Z,101042.56
2018-12-01T10:46:37.824Z,101037.71
2018-12-01T10:51:40.443Z,101029.85
2018-12-01T10:56:43.165Z,101016.98
2018-12-01T11:01:51.499Z,101016.30
2018-12-01T11:06:54.209Z,101019.94
2018-12-01T11:11:56.843Z,101015.95
2018-12-01T11:16:59.536Z,101025.19
2018-12-01T11:22:02.189Z,101027.69
2018-12-01T11:27:05.117Z,101021.07
2018-12-01T11:32:07.778Z,101035.05
2018-12-01T11:37:10.356Z,101037.63
2018-12-01T11:42:12.969Z,101034.82
2018-12-01T11:47:15.678Z,101038.59
2018-12-01T11:52:18.335Z,101041.08
2018-12-01T11:57:20.977Z,101042.59
2018-12-01T12:02:23.726Z,101040.37
2018-12-01T12:07:43.732Z,101055.25
2018-12-01T12:12:46.532Z,101061.55
2018-12-01T12:18:05.408Z,101051.73
2018-12-01T12:23:08.082Z,101061.16
2018-12-01T12:28:10.797Z,101064.26
2018-12-01T12:33:13.393Z,101067.09
2018-12-01T12:38:16.004Z,101068.86
2018-12-01T12:43:18.581Z,101064.28
2018-12-01T12:48:21.161Z,101052.38
2018-12-01T12:53:23.776Z,101048.32
2018-12-01T12:58:26.410Z,101044.50
2018-12-01T13:03:29.004Z,101052.67
2018-12-01T13:08:31.638Z,101057.41
2018-12-01T13:13:34.279Z,101061.59
2018-12-01T13:18:36.869Z,101056.73
2018-12-01T13:23:39.504Z,101055.20
2018-12-01T13:28:42.131Z,101048.16
2018-12-01T13:33:45.119Z,101043.66
2018-12-01T13:38:47.840Z,101045.80
2018-12-01T13:43:50.452Z,101039.77
2018-12-01T13:48:53.186Z,101031.27
2018-12-01T13:53:55.847Z,101014.27
2018-12-01T13:58:58.782Z,101010.48
2018-12-01T14:04:01.407Z,101004.75
2018-12-01T14:09:06.797Z,101002.55
2018-12-01T14:14:09.740Z,101008.86
2018-12-01T14:19:12.413Z,101019.55
2018-12-01T14:24:15.213Z,101022.42
2018-12-01T14:29:17.866Z,101030.42
2018-12-01T14:34:20.594Z,101028.34
2018-12-01T14:39:23.209Z,101027.42
2018-12-01T14:44:25.810Z,101032.05
2018-12-01T14:49:28.356Z,101030.22
2018-12-01T14:54:31.004Z,101030.59
2018-12-01T14:59:33.679Z,101035.14
2018-12-01T15:04:36.481Z,101047.13
2018-12-01T15:09:39.064Z,101041.41
2018-12-01T15:14:41.698Z,101047.19
2018-12-01T15:19:44.287Z,101046.61
2018-12-01T15:24:46.831Z,101042.48
2018-12-01T15:29:49.447Z,101038.30
2018-12-01T15:34:52.189Z,101034.63
2018-12-01T15:39:54.776Z,101031.77
2018-12-01T15:44:57.398Z,101042.66
2018-12-01T15:49:59.991Z,101034.55
2018-12-01T15:55:02.641Z,101034.64
2018-12-01T16:00:25.544Z,101030.43
2018-12-01T16:05:28.167Z,101023.96
2018-12-01T16:10:30.830Z,101020.62
2018-12-01T16:15:35.913Z,101015.50
2018-12-01T16:20:38.759Z,101020.83
2018-12-01T16:25:41.781Z,101009.69
2018-12-01T16:30:45.299Z,101004.91
2018-12-01T16:35:49.162Z,101011.77
2018-12-01T16:40:56.339Z,101010.78
2018-12-01T16:45:59.268Z,101004.50
2018-12-01T16:51:01.977Z,101006.43
2018-12-01T16:56:04.945Z,101001.10
2018-12-01T17:01:07.582Z,100996.63
2018-12-01T17:06:15.528Z,100998.40
2018-12-01T17:11:18.205Z,100990.15
2018-12-01T17:16:20.983Z,100994.97
2018-12-01T17:21:23.616Z,100985.52
2018-12-01T17:26:26.181Z,100989.45
2018-12-01T17:31:28.844Z,100979.70
2018-12-01T17:36:31.442Z,100968.73
2018-12-01T17:41:34.056Z,100971.46
2018-12-01T17:46:36.801Z,100966.50
2018-12-01T17:51:39.437Z,100967.85
2018-12-01T17:56:42.184Z,100954.52
2018-12-01T18:01:44.796Z,100943.88
2018-12-01T18:06:47.424Z,100947.45
2018-12-01T18:11:50.113Z,100937.31
2018-12-01T18:16:53.642Z,100928.38
2018-12-01T18:21:56.240Z,100917.64
2018-12-01T18:26:58.940Z,100915.60
2018-12-01T18:32:01.535Z,100912.17
2018-12-01T18:37:04.136Z,100910.58
2018-12-01T18:42:06.760Z,100907.20
2018-12-01T18:47:09.326Z,100897.77
2018-12-01T18:52:11.927Z,100900.44
2018-12-01T18:57:14.597Z,100897.08
2018-12-01T19:02:17.288Z,100893.25
2018-12-01T19:07:19.863Z,100894.19
2018-12-01T19:12:22.469Z,100877.83
2018-12-01T19:17:25.116Z,100881.83
2018-12-01T19:22:27.841Z,100873.77
2018-12-01T19:27:30.582Z,100878.25
2018-12-01T19:32:33.522Z,100886.60
2018-12-01T19:37:36.285Z,100881.94
2018-12-01T19:42:38.919Z,100881.25
2018-12-01T19:47:41.532Z,100869.16
2018-12-01T19:52:44.268Z,100870.45
2018-12-01T19:57:46.888Z,100862.37
2018-12-01T20:02:49.810Z,100873.55
2018-12-01T20:07:52.596Z,100870.21
2018-12-01T20:12:59.541Z,100864.26
2018-12-01T20:18:07.040Z,100864.31
2018-12-01T20:23:09.796Z,100862.72
2018-12-01T20:28:12.444Z,100864.52
2018-12-01T20:33:15.926Z,100884.84
2018-12-01T20:38:41.688Z,100876.80
2018-12-01T20:43:44.262Z,100874.37
2018-12-01T20:48:46.940Z,100866.31
2018-12-01T20:53:49.958Z,100859.52
2018-12-01T20:58:52.609Z,100852.66
2018-12-01T21:03:55.234Z,100848.48
2018-12-01T21:08:57.873Z,100840.03
2018-12-01T21:14:00.479Z,100834.98
2018-12-01T21:19:03.152Z,100838.55
2018-12-01T21:24:06.588Z,100838.30
2018-12-01T21:29:09.215Z,100825.65
2018-12-01T21:34:11.752Z,100825.16
2018-12-01T21:39:14.496Z,100820.74
2018-12-01T21:44:17.108Z,100797.17
2018-12-01T21:49:19.732Z,100801.12
2018-12-01T21:54:22.328Z,100775.56
2018-12-01T21:59:24.873Z,100767.72
2018-12-01T22:04:27.484Z,100762.75
2018-12-01T22:09:30.060Z,100759.97
2018-12-01T22:14:32.681Z,100758.83
2018-12-01T22:19:35.280Z,100748.81
2018-12-01T22:24:37.933Z,100755.91
2018-12-01T22:29:40.609Z,100740.17
2018-12-01T22:34:43.203Z,100727.72
2018-12-01T22:39:45.877Z,100728.11
2018-12-01T22:44:48.593Z,100724.69
2018-12-01T22:49:51.270Z,100723.40
2018-12-01T22:54:53.980Z,100725.08
2018-12-01T22:59:56.693Z,100712.77
2018-12-01T23:04:59.360Z,100716.64
2018-12-01T23:10:02.004Z,100718.44
2018-12-01T23:15:06.805Z,100701.61
2018-12-01T23:20:19.351Z,100688.06
2018-12-01T23:25:22.068Z,100683.66
2018-12-01T23:30:27.805Z,100682.37
2018-12-01T23:35:31.047Z,100675.91
2018-12-01T23:40:33.710Z,100670.70
2018-12-01T23:45:38.744Z,100669.80
2018-12-01T23:50:45.121Z,100665.09
2018-12-01T23:55:47.776Z,100652.70
